sensor_id;sensor_type;location;lat;lon;timestamp;temperature;humidity
79055;DHT22;68452;47.186;-1.528;2023-05-07T00:01:47;15.70;81.70
79055;DHT22;68452;47.186;-1.528;2023-05-07T00:04:13;15.70;81.80
79055;DHT22;68452;47.186;-1.528;2023-05-07T00:06:39;15.70;81.60
79055;DHT22;68452;47.186;-1.528;2023-05-07T00:09:06;15.70;81.70
79055;DHT22;68452;47.186;-1.528;2023-05-07T00:11:32;15.70;81.70
79055;DHT22;68452;47.186;-1.528;2023-05-07T00:13:58;15.70;81.50
79055;DHT22;68452;47.186;-1.528;2023-05-07T00:16:24;15.70;81.40
79055;DHT22;68452;47.186;-1.528;2023-05-07T00:18:50;15.70;81.40
79055;DHT22;68452;47.186;-1.528;2023-05-07T00:21:16;15.80;81.40
79055;DHT22;68452;47.186;-1.528;2023-05-07T00:23:42;15.70;81.40
79055;DHT22;68452;47.186;-1.528;2023-05-07T00:26:08;15.70;81.40
79055;DHT22;68452;47.186;-1.528;2023-05-07T00:28:34;15.70;81.60
79055;DHT22;68452;47.186;-1.528;2023-05-07T00:30:59;15.70;81.30
79055;DHT22;68452;47.186;-1.528;2023-05-07T00:33:25;15.80;81.40
79055;DHT22;68452;47.186;-1.528;2023-05-07T00:35:52;15.70;81.40
79055;DHT22;68452;47.186;-1.528;2023-05-07T00:38:20;15.70;81.40
79055;DHT22;68452;47.186;-1.528;2023-05-07T00:40:45;15.70;81.60
79055;DHT22;68452;47.186;-1.528;2023-05-07T00:43:11;15.70;81.50
79055;DHT22;68452;47.186;-1.528;2023-05-07T00:45:38;15.80;81.50
79055;DHT22;68452;47.186;-1.528;2023-05-07T00:48:04;15.80;81.40
79055;DHT22;68452;47.186;-1.528;2023-05-07T00:50:31;15.80;81.50
79055;DHT22;68452;47.186;-1.528;2023-05-07T00:52:57;15.70;81.50
79055;DHT22;68452;47.186;-1.528;2023-05-07T00:55:24;15.80;81.40
79055;DHT22;68452;47.186;-1.528;2023-05-07T00:57:50;15.80;81.50
79055;DHT22;68452;47.186;-1.528;2023-05-07T01:00:17;15.80;81.40
79055;DHT22;68452;47.186;-1.528;2023-05-07T01:02:43;15.80;81.40
79055;DHT22;68452;47.186;-1.528;2023-05-07T01:05:14;15.80;81.60
79055;DHT22;68452;47.186;-1.528;2023-05-07T01:07:42;15.80;81.50
79055;DHT22;68452;47.186;-1.528;2023-05-07T01:10:08;15.80;81.40
79055;DHT22;68452;47.186;-1.528;2023-05-07T01:12:37;15.80;81.60
79055;DHT22;68452;47.186;-1.528;2023-05-07T01:15:04;15.80;81.40
79055;DHT22;68452;47.186;-1.528;2023-05-07T01:17:35;15.80;81.40
79055;DHT22;68452;47.186;-1.528;2023-05-07T01:20:01;15.80;81.10
79055;DHT22;68452;47.186;-1.528;2023-05-07T01:25:00;15.80;81.50
79055;DHT22;68452;47.186;-1.528;2023-05-07T01:27:27;15.80;81.40
79055;DHT22;68452;47.186;-1.528;2023-05-07T01:29:53;15.80;81.50
79055;DHT22;68452;47.186;-1.528;2023-05-07T01:32:24;15.90;81.40
79055;DHT22;68452;47.186;-1.528;2023-05-07T01:34:53;15.90;81.40
79055;DHT22;68452;47.186;-1.528;2023-05-07T01:37:20;15.90;81.20
79055;DHT22;68452;47.186;-1.528;2023-05-07T01:39:47;15.90;81.20
79055;DHT22;68452;47.186;-1.528;2023-05-07T01:42:13;15.90;81.20
79055;DHT22;68452;47.186;-1.528;2023-05-07T01:44:39;15.90;81.20
79055;DHT22;68452;47.186;-1.528;2023-05-07T01:47:06;15.90;81.30
79055;DHT22;68452;47.186;-1.528;2023-05-07T01:49:32;15.90;81.30
79055;DHT22;68452;47.186;-1.528;2023-05-07T01:51:58;15.90;81.10
79055;DHT22;68452;47.186;-1.528;2023-05-07T01:54:27;15.90;81.00
79055;DHT22;68452;47.186;-1.528;2023-05-07T01:56:55;15.90;81.00
79055;DHT22;68452;47.186;-1.528;2023-05-07T01:59:22;15.90;80.70
79055;DHT22;68452;47.186;-1.528;2023-05-07T02:01:47;15.90;80.80
79055;DHT22;68452;47.186;-1.528;2023-05-07T02:04:13;15.90;80.80
79055;DHT22;68452;47.186;-1.528;2023-05-07T02:06:39;15.90;80.80
79055;DHT22;68452;47.186;-1.528;2023-05-07T02:09:05;15.90;80.80
79055;DHT22;68452;47.186;-1.528;2023-05-07T02:11:30;15.90;80.80
79055;DHT22;68452;47.186;-1.528;2023-05-07T02:13:56;15.90;80.80
79055;DHT22;68452;47.186;-1.528;2023-05-07T02:16:22;15.90;80.60
79055;DHT22;68452;47.186;-1.528;2023-05-07T02:18:49;15.90;80.80
79055;DHT22;68452;47.186;-1.528;2023-05-07T02:21:15;15.90;80.90
79055;DHT22;68452;47.186;-1.528;2023-05-07T02:23:41;15.90;80.90
79055;DHT22;68452;47.186;-1.528;2023-05-07T02:26:08;15.90;81.10
79055;DHT22;68452;47.186;-1.528;2023-05-07T02:28:34;15.90;81.20
79055;DHT22;68452;47.186;-1.528;2023-05-07T02:31:03;15.90;81.10
79055;DHT22;68452;47.186;-1.528;2023-05-07T02:33:29;15.90;81.30
79055;DHT22;68452;47.186;-1.528;2023-05-07T02:35:56;15.90;81.50
79055;DHT22;68452;47.186;-1.528;2023-05-07T02:38:22;15.90;81.30
79055;DHT22;68452;47.186;-1.528;2023-05-07T02:40:48;15.90;81.50
79055;DHT22;68452;47.186;-1.528;2023-05-07T02:43:14;15.90;81.40
79055;DHT22;68452;47.186;-1.528;2023-05-07T02:45:40;15.90;81.60
79055;DHT22;68452;47.186;-1.528;2023-05-07T02:48:06;15.80;81.60
79055;DHT22;68452;47.186;-1.528;2023-05-07T02:50:32;15.80;81.70
79055;DHT22;68452;47.186;-1.528;2023-05-07T02:52:58;15.80;81.80
79055;DHT22;68452;47.186;-1.528;2023-05-07T02:55:25;15.80;81.80
79055;DHT22;68452;47.186;-1.528;2023-05-07T02:57:50;15.80;82.00
79055;DHT22;68452;47.186;-1.528;2023-05-07T03:00:18;15.80;82.10
79055;DHT22;68452;47.186;-1.528;2023-05-07T03:02:45;15.80;82.20
79055;DHT22;68452;47.186;-1.528;2023-05-07T03:05:11;15.80;82.20
79055;DHT22;68452;47.186;-1.528;2023-05-07T03:07:38;15.80;82.00
79055;DHT22;68452;47.186;-1.528;2023-05-07T03:10:04;15.80;82.00
79055;DHT22;68452;47.186;-1.528;2023-05-07T03:12:31;15.80;81.60
79055;DHT22;68452;47.186;-1.528;2023-05-07T03:14:57;15.70;82.00
79055;DHT22;68452;47.186;-1.528;2023-05-07T03:17:23;15.70;82.30
79055;DHT22;68452;47.186;-1.528;2023-05-07T03:19:48;15.60;82.80
79055;DHT22;68452;47.186;-1.528;2023-05-07T03:22:14;15.60;83.10
79055;DHT22;68452;47.186;-1.528;2023-05-07T03:24:40;15.60;83.60
79055;DHT22;68452;47.186;-1.528;2023-05-07T03:27:06;15.60;83.70
79055;DHT22;68452;47.186;-1.528;2023-05-07T03:29:32;15.60;83.80
79055;DHT22;68452;47.186;-1.528;2023-05-07T03:31:57;15.60;83.70
79055;DHT22;68452;47.186;-1.528;2023-05-07T03:34:23;15.60;83.80
79055;DHT22;68452;47.186;-1.528;2023-05-07T03:36:49;15.60;83.70
79055;DHT22;68452;47.186;-1.528;2023-05-07T03:39:15;15.60;83.30
79055;DHT22;68452;47.186;-1.528;2023-05-07T03:41:41;15.70;83.20
79055;DHT22;68452;47.186;-1.528;2023-05-07T03:44:07;15.60;82.50
79055;DHT22;68452;47.186;-1.528;2023-05-07T03:46:33;15.60;82.60
79055;DHT22;68452;47.186;-1.528;2023-05-07T03:48:59;15.60;82.80
79055;DHT22;68452;47.186;-1.528;2023-05-07T03:51:25;15.60;82.50
79055;DHT22;68452;47.186;-1.528;2023-05-07T03:53:52;15.60;82.50
79055;DHT22;68452;47.186;-1.528;2023-05-07T03:56:19;15.60;82.90
79055;DHT22;68452;47.186;-1.528;2023-05-07T03:58:45;15.60;83.00
79055;DHT22;68452;47.186;-1.528;2023-05-07T04:01:11;15.60;82.90
79055;DHT22;68452;47.186;-1.528;2023-05-07T04:03:38;15.60;82.90
79055;DHT22;68452;47.186;-1.528;2023-05-07T04:06:04;15.60;82.90
79055;DHT22;68452;47.186;-1.528;2023-05-07T04:08:30;15.60;82.80
79055;DHT22;68452;47.186;-1.528;2023-05-07T04:10:58;15.60;82.40
79055;DHT22;68452;47.186;-1.528;2023-05-07T04:13:26;15.60;82.10
79055;DHT22;68452;47.186;-1.528;2023-05-07T04:15:53;15.50;82.30
79055;DHT22;68452;47.186;-1.528;2023-05-07T04:18:19;15.60;82.10
79055;DHT22;68452;47.186;-1.528;2023-05-07T04:20:45;15.60;82.20
79055;DHT22;68452;47.186;-1.528;2023-05-07T04:23:11;15.60;82.10
79055;DHT22;68452;47.186;-1.528;2023-05-07T04:25:37;15.60;82.10
79055;DHT22;68452;47.186;-1.528;2023-05-07T04:28:03;15.60;81.70
79055;DHT22;68452;47.186;-1.528;2023-05-07T04:30:29;15.60;81.70
79055;DHT22;68452;47.186;-1.528;2023-05-07T04:32:54;15.60;81.50
79055;DHT22;68452;47.186;-1.528;2023-05-07T04:35:21;15.60;81.50
79055;DHT22;68452;47.186;-1.528;2023-05-07T04:37:47;15.60;81.30
79055;DHT22;68452;47.186;-1.528;2023-05-07T04:40:13;15.60;81.40
79055;DHT22;68452;47.186;-1.528;2023-05-07T04:42:39;15.60;81.50
79055;DHT22;68452;47.186;-1.528;2023-05-07T04:45:05;15.60;81.40
79055;DHT22;68452;47.186;-1.528;2023-05-07T04:47:31;15.60;81.40
79055;DHT22;68452;47.186;-1.528;2023-05-07T04:49:58;15.60;81.20
79055;DHT22;68452;47.186;-1.528;2023-05-07T04:52:24;15.60;81.20
79055;DHT22;68452;47.186;-1.528;2023-05-07T04:54:49;15.60;81.20
79055;DHT22;68452;47.186;-1.528;2023-05-07T04:57:16;15.60;81.30
79055;DHT22;68452;47.186;-1.528;2023-05-07T04:59:43;15.60;81.30
79055;DHT22;68452;47.186;-1.528;2023-05-07T05:02:12;15.60;81.10
79055;DHT22;68452;47.186;-1.528;2023-05-07T05:04:38;15.60;81.20
79055;DHT22;68452;47.186;-1.528;2023-05-07T05:07:04;15.60;81.30
79055;DHT22;68452;47.186;-1.528;2023-05-07T05:09:30;15.60;81.10
79055;DHT22;68452;47.186;-1.528;2023-05-07T05:11:56;15.60;81.30
79055;DHT22;68452;47.186;-1.528;2023-05-07T05:14:21;15.60;81.20
79055;DHT22;68452;47.186;-1.528;2023-05-07T05:16:47;15.70;81.20
79055;DHT22;68452;47.186;-1.528;2023-05-07T05:19:14;15.70;81.00
79055;DHT22;68452;47.186;-1.528;2023-05-07T05:21:40;15.60;80.90
79055;DHT22;68452;47.186;-1.528;2023-05-07T05:24:06;15.70;81.10
79055;DHT22;68452;47.186;-1.528;2023-05-07T05:26:31;15.70;81.10
79055;DHT22;68452;47.186;-1.528;2023-05-07T05:28:57;15.70;80.90
79055;DHT22;68452;47.186;-1.528;2023-05-07T05:31:23;15.70;80.40
79055;DHT22;68452;47.186;-1.528;2023-05-07T05:33:49;15.70;80.60
79055;DHT22;68452;47.186;-1.528;2023-05-07T05:36:14;15.70;80.40
79055;DHT22;68452;47.186;-1.528;2023-05-07T05:38:40;15.70;80.50
79055;DHT22;68452;47.186;-1.528;2023-05-07T05:41:06;15.70;80.40
79055;DHT22;68452;47.186;-1.528;2023-05-07T05:43:32;15.80;80.50
79055;DHT22;68452;47.186;-1.528;2023-05-07T05:45:58;15.80;80.50
79055;DHT22;68452;47.186;-1.528;2023-05-07T05:48:24;15.90;80.50
79055;DHT22;68452;47.186;-1.528;2023-05-07T05:50:50;15.90;80.00
79055;DHT22;68452;47.186;-1.528;2023-05-07T05:53:16;15.90;80.20
79055;DHT22;68452;47.186;-1.528;2023-05-07T05:55:42;15.90;80.30
79055;DHT22;68452;47.186;-1.528;2023-05-07T05:58:08;15.90;80.40
79055;DHT22;68452;47.186;-1.528;2023-05-07T06:00:34;15.90;80.50
79055;DHT22;68452;47.186;-1.528;2023-05-07T06:03:00;16.00;79.90
79055;DHT22;68452;47.186;-1.528;2023-05-07T06:05:26;16.00;79.80
79055;DHT22;68452;47.186;-1.528;2023-05-07T06:07:52;16.00;80.00
79055;DHT22;68452;47.186;-1.528;2023-05-07T06:10:18;16.00;79.70
79055;DHT22;68452;47.186;-1.528;2023-05-07T06:12:45;16.00;80.10
79055;DHT22;68452;47.186;-1.528;2023-05-07T06:15:11;16.00;79.90
79055;DHT22;68452;47.186;-1.528;2023-05-07T06:17:36;16.00;79.80
79055;DHT22;68452;47.186;-1.528;2023-05-07T06:20:02;16.00;80.00
79055;DHT22;68452;47.186;-1.528;2023-05-07T06:22:28;16.00;79.50
79055;DHT22;68452;47.186;-1.528;2023-05-07T06:24:54;16.00;79.60
79055;DHT22;68452;47.186;-1.528;2023-05-07T06:27:20;16.00;79.40
79055;DHT22;68452;47.186;-1.528;2023-05-07T06:29:48;16.00;79.60
79055;DHT22;68452;47.186;-1.528;2023-05-07T06:32:14;16.00;79.90
79055;DHT22;68452;47.186;-1.528;2023-05-07T06:34:40;16.00;79.80
79055;DHT22;68452;47.186;-1.528;2023-05-07T06:37:06;16.00;79.70
79055;DHT22;68452;47.186;-1.528;2023-05-07T06:39:32;16.00;79.50
79055;DHT22;68452;47.186;-1.528;2023-05-07T06:42:00;16.10;79.60
79055;DHT22;68452;47.186;-1.528;2023-05-07T06:44:26;16.10;79.60
79055;DHT22;68452;47.186;-1.528;2023-05-07T06:46:51;16.10;79.50
79055;DHT22;68452;47.186;-1.528;2023-05-07T06:49:17;16.10;79.70
79055;DHT22;68452;47.186;-1.528;2023-05-07T06:51:43;16.10;79.20
79055;DHT22;68452;47.186;-1.528;2023-05-07T06:54:09;16.10;79.20
79055;DHT22;68452;47.186;-1.528;2023-05-07T06:56:35;16.20;79.10
79055;DHT22;68452;47.186;-1.528;2023-05-07T06:59:02;16.20;78.90
79055;DHT22;68452;47.186;-1.528;2023-05-07T07:01:28;16.30;78.90
79055;DHT22;68452;47.186;-1.528;2023-05-07T07:03:54;16.40;79.00
79055;DHT22;68452;47.186;-1.528;2023-05-07T07:06:20;16.40;78.30
79055;DHT22;68452;47.186;-1.528;2023-05-07T07:08:46;16.40;78.50
79055;DHT22;68452;47.186;-1.528;2023-05-07T07:11:12;16.50;78.00
79055;DHT22;68452;47.186;-1.528;2023-05-07T07:13:37;16.50;77.70
79055;DHT22;68452;47.186;-1.528;2023-05-07T07:16:03;16.50;77.40
79055;DHT22;68452;47.186;-1.528;2023-05-07T07:18:29;16.50;77.60
79055;DHT22;68452;47.186;-1.528;2023-05-07T07:20:55;16.60;78.10
79055;DHT22;68452;47.186;-1.528;2023-05-07T07:23:21;16.60;77.60
79055;DHT22;68452;47.186;-1.528;2023-05-07T07:25:47;16.60;77.60
79055;DHT22;68452;47.186;-1.528;2023-05-07T07:28:13;16.60;77.70
79055;DHT22;68452;47.186;-1.528;2023-05-07T07:30:40;16.60;78.00
79055;DHT22;68452;47.186;-1.528;2023-05-07T07:33:06;16.70;77.60
79055;DHT22;68452;47.186;-1.528;2023-05-07T07:35:32;16.70;78.00
79055;DHT22;68452;47.186;-1.528;2023-05-07T07:37:58;16.80;77.70
79055;DHT22;68452;47.186;-1.528;2023-05-07T07:40:24;16.80;77.80
79055;DHT22;68452;47.186;-1.528;2023-05-07T07:42:51;16.80;77.50
79055;DHT22;68452;47.186;-1.528;2023-05-07T07:45:17;16.80;78.00
79055;DHT22;68452;47.186;-1.528;2023-05-07T07:47:43;16.80;77.30
79055;DHT22;68452;47.186;-1.528;2023-05-07T07:50:09;16.90;77.30
79055;DHT22;68452;47.186;-1.528;2023-05-07T07:52:35;16.90;77.70
79055;DHT22;68452;47.186;-1.528;2023-05-07T07:55:01;16.90;77.40
79055;DHT22;68452;47.186;-1.528;2023-05-07T07:57:27;17.00;77.70
79055;DHT22;68452;47.186;-1.528;2023-05-07T07:59:53;17.10;77.10
79055;DHT22;68452;47.186;-1.528;2023-05-07T08:02:19;17.30;77.40
79055;DHT22;68452;47.186;-1.528;2023-05-07T08:04:46;17.40;76.60
79055;DHT22;68452;47.186;-1.528;2023-05-07T08:07:12;17.40;76.20
79055;DHT22;68452;47.186;-1.528;2023-05-07T08:09:38;17.40;75.90
79055;DHT22;68452;47.186;-1.528;2023-05-07T08:12:06;17.50;76.30
79055;DHT22;68452;47.186;-1.528;2023-05-07T08:14:34;17.50;76.20
79055;DHT22;68452;47.186;-1.528;2023-05-07T08:17:00;17.50;75.50
79055;DHT22;68452;47.186;-1.528;2023-05-07T08:19:28;17.50;75.50
79055;DHT22;68452;47.186;-1.528;2023-05-07T08:21:54;17.50;74.70
79055;DHT22;68452;47.186;-1.528;2023-05-07T08:24:21;17.60;75.60
79055;DHT22;68452;47.186;-1.528;2023-05-07T08:26:46;17.80;75.70
79055;DHT22;68452;47.186;-1.528;2023-05-07T08:29:12;18.00;75.00
79055;DHT22;68452;47.186;-1.528;2023-05-07T08:31:39;18.10;75.20
79055;DHT22;68452;47.186;-1.528;2023-05-07T08:34:05;18.20;74.70
79055;DHT22;68452;47.186;-1.528;2023-05-07T08:36:32;18.40;74.10
79055;DHT22;68452;47.186;-1.528;2023-05-07T08:38:58;18.40;73.60
79055;DHT22;68452;47.186;-1.528;2023-05-07T08:41:24;18.40;72.00
79055;DHT22;68452;47.186;-1.528;2023-05-07T08:43:51;18.40;72.60
79055;DHT22;68452;47.186;-1.528;2023-05-07T08:46:21;18.40;73.40
79055;DHT22;68452;47.186;-1.528;2023-05-07T08:48:51;18.50;73.00
79055;DHT22;68452;47.186;-1.528;2023-05-07T08:51:18;18.60;71.90
79055;DHT22;68452;47.186;-1.528;2023-05-07T08:53:47;18.40;71.40
79055;DHT22;68452;47.186;-1.528;2023-05-07T08:56:14;18.50;72.00
79055;DHT22;68452;47.186;-1.528;2023-05-07T08:58:45;18.60;71.20
79055;DHT22;68452;47.186;-1.528;2023-05-07T09:01:15;18.70;71.20
79055;DHT22;68452;47.186;-1.528;2023-05-07T09:03:44;18.70;70.70
79055;DHT22;68452;47.186;-1.528;2023-05-07T09:06:11;18.80;71.20
79055;DHT22;68452;47.186;-1.528;2023-05-07T09:08:37;19.00;70.00
79055;DHT22;68452;47.186;-1.528;2023-05-07T09:11:03;19.10;68.20
79055;DHT22;68452;47.186;-1.528;2023-05-07T09:13:29;19.00;68.40
79055;DHT22;68452;47.186;-1.528;2023-05-07T09:15:55;19.10;70.20
79055;DHT22;68452;47.186;-1.528;2023-05-07T09:18:24;19.10;69.40
79055;DHT22;68452;47.186;-1.528;2023-05-07T09:20:49;19.20;68.10
79055;DHT22;68452;47.186;-1.528;2023-05-07T09:23:16;19.40;68.10
79055;DHT22;68452;47.186;-1.528;2023-05-07T09:25:42;19.70;69.20
79055;DHT22;68452;47.186;-1.528;2023-05-07T09:28:08;19.90;68.30
79055;DHT22;68452;47.186;-1.528;2023-05-07T09:30:35;19.90;65.90
79055;DHT22;68452;47.186;-1.528;2023-05-07T09:33:03;19.90;67.40
79055;DHT22;68452;47.186;-1.528;2023-05-07T09:35:30;20.00;68.00
79055;DHT22;68452;47.186;-1.528;2023-05-07T09:37:58;20.00;67.20
79055;DHT22;68452;47.186;-1.528;2023-05-07T09:40:26;19.90;65.80
79055;DHT22;68452;47.186;-1.528;2023-05-07T09:42:53;19.60;65.90
79055;DHT22;68452;47.186;-1.528;2023-05-07T09:45:24;19.60;66.60
79055;DHT22;68452;47.186;-1.528;2023-05-07T09:47:57;19.50;67.00
79055;DHT22;68452;47.186;-1.528;2023-05-07T09:50:30;19.40;66.70
79055;DHT22;68452;47.186;-1.528;2023-05-07T09:52:59;19.40;67.80
79055;DHT22;68452;47.186;-1.528;2023-05-07T09:55:26;19.50;68.40
79055;DHT22;68452;47.186;-1.528;2023-05-07T09:57:53;19.70;67.70
79055;DHT22;68452;47.186;-1.528;2023-05-07T10:00:20;20.00;66.50
79055;DHT22;68452;47.186;-1.528;2023-05-07T10:02:51;20.10;66.10
79055;DHT22;68452;47.186;-1.528;2023-05-07T10:05:21;20.10;66.00
79055;DHT22;68452;47.186;-1.528;2023-05-07T10:07:48;20.00;65.60
79055;DHT22;68452;47.186;-1.528;2023-05-07T10:10:15;20.00;66.90
79055;DHT22;68452;47.186;-1.528;2023-05-07T10:12:43;20.30;67.40
79055;DHT22;68452;47.186;-1.528;2023-05-07T10:15:10;20.30;66.00
79055;DHT22;68452;47.186;-1.528;2023-05-07T10:17:38;20.30;65.40
79055;DHT22;68452;47.186;-1.528;2023-05-07T10:20:05;20.40;66.60
79055;DHT22;68452;47.186;-1.528;2023-05-07T10:22:39;20.60;66.50
79055;DHT22;68452;47.186;-1.528;2023-05-07T10:25:16;20.60;64.90
79055;DHT22;68452;47.186;-1.528;2023-05-07T10:27:44;20.50;64.40
79055;DHT22;68452;47.186;-1.528;2023-05-07T10:33:04;20.60;65.20
79055;DHT22;68452;47.186;-1.528;2023-05-07T10:35:45;20.70;65.10
79055;DHT22;68452;47.186;-1.528;2023-05-07T10:38:12;20.90;65.40
79055;DHT22;68452;47.186;-1.528;2023-05-07T10:40:39;21.00;65.00
79055;DHT22;68452;47.186;-1.528;2023-05-07T10:43:06;21.00;62.90
79055;DHT22;68452;47.186;-1.528;2023-05-07T10:45:33;21.20;63.80
79055;DHT22;68452;47.186;-1.528;2023-05-07T10:48:13;21.30;64.30
79055;DHT22;68452;47.186;-1.528;2023-05-07T10:50:41;21.30;62.80
79055;DHT22;68452;47.186;-1.528;2023-05-07T10:55:50;20.90;62.90
79055;DHT22;68452;47.186;-1.528;2023-05-07T10:58:31;20.60;64.30
79055;DHT22;68452;47.186;-1.528;2023-05-07T11:01:02;20.50;64.80
79055;DHT22;68452;47.186;-1.528;2023-05-07T11:03:28;20.50;65.20
79055;DHT22;68452;47.186;-1.528;2023-05-07T11:06:12;20.40;65.20
79055;DHT22;68452;47.186;-1.528;2023-05-07T11:08:54;20.40;65.60
79055;DHT22;68452;47.186;-1.528;2023-05-07T11:14:14;20.90;65.60
79055;DHT22;68452;47.186;-1.528;2023-05-07T11:16:41;21.20;64.00
79055;DHT22;68452;47.186;-1.528;2023-05-07T11:19:09;21.50;62.70
79055;DHT22;68452;47.186;-1.528;2023-05-07T11:24:02;22.10;59.90
79055;DHT22;68452;47.186;-1.528;2023-05-07T11:26:31;22.30;60.90
79055;DHT22;68452;47.186;-1.528;2023-05-07T11:29:17;22.40;59.60
79055;DHT22;68452;47.186;-1.528;2023-05-07T11:31:43;22.30;60.00
79055;DHT22;68452;47.186;-1.528;2023-05-07T11:34:11;22.40;60.00
79055;DHT22;68452;47.186;-1.528;2023-05-07T11:36:42;22.30;60.20
79055;DHT22;68452;47.186;-1.528;2023-05-07T11:39:29;22.30;57.80
79055;DHT22;68452;47.186;-1.528;2023-05-07T11:41:57;22.20;57.50
79055;DHT22;68452;47.186;-1.528;2023-05-07T11:44:22;22.00;58.30
79055;DHT22;68452;47.186;-1.528;2023-05-07T11:46:49;22.50;58.20
79055;DHT22;68452;47.186;-1.528;2023-05-07T11:49:14;22.50;58.40
79055;DHT22;68452;47.186;-1.528;2023-05-07T11:51:41;22.30;57.60
79055;DHT22;68452;47.186;-1.528;2023-05-07T11:54:09;22.70;58.50
79055;DHT22;68452;47.186;-1.528;2023-05-07T11:56:37;22.70;57.50
79055;DHT22;68452;47.186;-1.528;2023-05-07T11:59:04;22.30;58.00
79055;DHT22;68452;47.186;-1.528;2023-05-07T12:01:30;22.10;58.60
79055;DHT22;68452;47.186;-1.528;2023-05-07T12:03:56;22.20;58.90
79055;DHT22;68452;47.186;-1.528;2023-05-07T12:06:22;22.50;58.90
79055;DHT22;68452;47.186;-1.528;2023-05-07T12:08:48;22.60;58.60
79055;DHT22;68452;47.186;-1.528;2023-05-07T12:11:16;22.30;58.70
79055;DHT22;68452;47.186;-1.528;2023-05-07T12:13:43;21.90;60.60
79055;DHT22;68452;47.186;-1.528;2023-05-07T12:16:10;21.30;63.20
79055;DHT22;68452;47.186;-1.528;2023-05-07T12:18:37;20.90;65.20
79055;DHT22;68452;47.186;-1.528;2023-05-07T12:21:04;20.60;67.20
79055;DHT22;68452;47.186;-1.528;2023-05-07T12:23:35;20.50;68.50
79055;DHT22;68452;47.186;-1.528;2023-05-07T12:26:01;20.50;69.30
79055;DHT22;68452;47.186;-1.528;2023-05-07T12:28:27;20.60;69.50
79055;DHT22;68452;47.186;-1.528;2023-05-07T12:30:53;20.80;68.80
79055;DHT22;68452;47.186;-1.528;2023-05-07T12:33:26;21.00;67.80
79055;DHT22;68452;47.186;-1.528;2023-05-07T12:35:54;21.30;67.50
79055;DHT22;68452;47.186;-1.528;2023-05-07T12:38:22;21.60;65.90
79055;DHT22;68452;47.186;-1.528;2023-05-07T12:40:49;21.80;62.90
79055;DHT22;68452;47.186;-1.528;2023-05-07T12:43:26;21.60;62.00
79055;DHT22;68452;47.186;-1.528;2023-05-07T12:45:54;21.60;63.00
79055;DHT22;68452;47.186;-1.528;2023-05-07T12:48:21;21.80;63.00
79055;DHT22;68452;47.186;-1.528;2023-05-07T12:50:51;21.90;62.20
79055;DHT22;68452;47.186;-1.528;2023-05-07T12:53:21;22.00;62.00
79055;DHT22;68452;47.186;-1.528;2023-05-07T12:55:48;22.10;61.30
79055;DHT22;68452;47.186;-1.528;2023-05-07T12:58:28;21.90;59.60
79055;DHT22;68452;47.186;-1.528;2023-05-07T13:00:55;22.10;59.30
79055;DHT22;68452;47.186;-1.528;2023-05-07T13:03:50;22.10;58.20
79055;DHT22;68452;47.186;-1.528;2023-05-07T13:06:16;22.10;59.00
79055;DHT22;68452;47.186;-1.528;2023-05-07T13:08:42;22.20;60.20
79055;DHT22;68452;47.186;-1.528;2023-05-07T13:11:11;22.60;56.80
79055;DHT22;68452;47.186;-1.528;2023-05-07T13:13:39;22.80;57.10
79055;DHT22;68452;47.186;-1.528;2023-05-07T13:16:07;22.90;58.30
79055;DHT22;68452;47.186;-1.528;2023-05-07T13:18:33;23.00;56.80
79055;DHT22;68452;47.186;-1.528;2023-05-07T13:21:00;23.60;57.00
79055;DHT22;68452;47.186;-1.528;2023-05-07T13:23:26;24.30;56.70
79055;DHT22;68452;47.186;-1.528;2023-05-07T13:25:52;24.10;55.60
79055;DHT22;68452;47.186;-1.528;2023-05-07T13:28:19;24.40;55.60
79055;DHT22;68452;47.186;-1.528;2023-05-07T13:30:46;24.50;54.90
79055;DHT22;68452;47.186;-1.528;2023-05-07T13:33:12;23.90;53.60
79055;DHT22;68452;47.186;-1.528;2023-05-07T13:35:38;23.40;54.50
79055;DHT22;68452;47.186;-1.528;2023-05-07T13:38:04;23.30;55.30
79055;DHT22;68452;47.186;-1.528;2023-05-07T13:40:30;24.30;54.30
79055;DHT22;68452;47.186;-1.528;2023-05-07T13:43:00;24.70;53.10
79055;DHT22;68452;47.186;-1.528;2023-05-07T13:45:29;25.00;53.70
79055;DHT22;68452;47.186;-1.528;2023-05-07T13:47:56;25.20;51.00
79055;DHT22;68452;47.186;-1.528;2023-05-07T13:50:22;24.80;51.70
79055;DHT22;68452;47.186;-1.528;2023-05-07T13:52:48;24.60;51.60
79055;DHT22;68452;47.186;-1.528;2023-05-07T13:55:17;24.80;50.90
79055;DHT22;68452;47.186;-1.528;2023-05-07T13:57:44;24.30;51.10
79055;DHT22;68452;47.186;-1.528;2023-05-07T14:00:10;23.90;52.60
79055;DHT22;68452;47.186;-1.528;2023-05-07T14:02:37;23.90;51.90
79055;DHT22;68452;47.186;-1.528;2023-05-07T14:05:03;24.30;52.30
79055;DHT22;68452;47.186;-1.528;2023-05-07T14:07:28;24.70;51.40
79055;DHT22;68452;47.186;-1.528;2023-05-07T14:09:55;25.10;50.90
79055;DHT22;68452;47.186;-1.528;2023-05-07T14:12:21;25.50;52.40
79055;DHT22;68452;47.186;-1.528;2023-05-07T14:14:47;25.70;50.50
79055;DHT22;68452;47.186;-1.528;2023-05-07T14:17:13;26.10;49.40
79055;DHT22;68452;47.186;-1.528;2023-05-07T14:19:39;27.20;47.70
79055;DHT22;68452;47.186;-1.528;2023-05-07T14:22:04;29.20;43.20
79055;DHT22;68452;47.186;-1.528;2023-05-07T14:24:30;27.70;45.10
79055;DHT22;68452;47.186;-1.528;2023-05-07T14:26:56;26.10;47.50
79055;DHT22;68452;47.186;-1.528;2023-05-07T14:29:22;25.60;50.50
79055;DHT22;68452;47.186;-1.528;2023-05-07T14:31:48;27.40;45.00
79055;DHT22;68452;47.186;-1.528;2023-05-07T14:34:14;25.90;47.50
79055;DHT22;68452;47.186;-1.528;2023-05-07T14:36:39;25.00;49.50
79055;DHT22;68452;47.186;-1.528;2023-05-07T14:39:05;28.80;44.20
79055;DHT22;68452;47.186;-1.528;2023-05-07T14:41:31;33.30;36.20
79055;DHT22;68452;47.186;-1.528;2023-05-07T14:43:58;35.70;33.30
79055;DHT22;68452;47.186;-1.528;2023-05-07T14:46:24;34.20;33.00
79055;DHT22;68452;47.186;-1.528;2023-05-07T14:48:51;30.40;39.30
79055;DHT22;68452;47.186;-1.528;2023-05-07T14:51:17;29.10;42.30
79055;DHT22;68452;47.186;-1.528;2023-05-07T14:53:42;27.90;43.40
79055;DHT22;68452;47.186;-1.528;2023-05-07T14:56:08;26.40;45.90
79055;DHT22;68452;47.186;-1.528;2023-05-07T14:58:34;26.00;48.10
79055;DHT22;68452;47.186;-1.528;2023-05-07T15:01:01;25.70;48.00
79055;DHT22;68452;47.186;-1.528;2023-05-07T15:03:27;25.60;49.50
79055;DHT22;68452;47.186;-1.528;2023-05-07T15:05:53;25.40;50.00
79055;DHT22;68452;47.186;-1.528;2023-05-07T15:08:19;25.20;49.40
79055;DHT22;68452;47.186;-1.528;2023-05-07T15:10:45;25.20;49.40
79055;DHT22;68452;47.186;-1.528;2023-05-07T15:13:11;24.70;50.60
79055;DHT22;68452;47.186;-1.528;2023-05-07T15:15:41;24.30;51.20
79055;DHT22;68452;47.186;-1.528;2023-05-07T15:18:07;24.00;52.20
79055;DHT22;68452;47.186;-1.528;2023-05-07T15:20:33;23.90;52.90
79055;DHT22;68452;47.186;-1.528;2023-05-07T15:22:59;23.50;53.30
79055;DHT22;68452;47.186;-1.528;2023-05-07T15:25:24;23.50;53.40
79055;DHT22;68452;47.186;-1.528;2023-05-07T15:27:50;23.60;53.40